| time (UTC) | temp C | wind direction | speed KPH | gust KPH | rain 1hr cm | rain 24hr cm | rain mn cm | humidity % | barometer mb |
| 20260504215332 | -17 | 352 | 4.8 | 9.7 | 0.00 | 0.00 | 0.00 | 1009.9 | |
| 20260504214828 | -17 | 338 | 8.0 | 14.5 | 0.00 | 0.00 | 0.00 | 1010.1 | |
| 20260504214326 | -17 | 307 | 4.8 | 14.5 | 0.00 | 0.00 | 0.00 | 1010.1 | |
| 20260504213822 | -17 | 303 | 4.8 | 11.3 | 0.00 | 0.00 | 0.00 | 1010.2 | |
| 20260504213318 | -17 | 323 | 4.8 | 11.3 | 0.00 | 0.00 | 0.00 | 1010.2 | |
| 20260504212816 | -17 | 285 | 6.4 | 16.1 | 0.00 | 0.00 | 0.00 | 1010.2 | |
| 20260504212312 | -17 | 308 | 4.8 | 17.7 | 0.00 | 0.00 | 0.00 | 1010.3 | |
| 20260504211810 | -17 | 335 | 3.2 | 14.5 | 0.00 | 0.00 | 0.00 | 1010.2 | |
| 20260504211305 | -17 | 325 | 6.4 | 12.9 | 0.00 | 0.00 | 0.00 | 1010.2 | |
| 20260504210803 | -17 | 13 | 8.0 | 14.5 | 0.00 | 0.00 | 0.00 | 1010.4 | |
| 20260504210300 | -17 | 283 | 9.7 | 14.5 | 0.00 | 0.00 | 0.00 | 1010.1 | |
| 20260504205757 | -17 | 325 | 9.7 | 11.3 | 0.00 | 0.00 | 0.00 | 1010.3 | |
| 20260504205255 | -17 | 268 | 4.8 | 12.9 | 0.00 | 0.00 | 0.00 | 1010.3 | |
| 20260504204753 | -17 | 311 | 9.7 | 16.1 | 0.00 | 0.00 | 0.00 | 1010.4 | |
| 20260504204251 | -17 | 281 | 8.0 | 17.7 | 0.00 | 0.00 | 0.00 | 1010.6 | |
| 20260504203750 | -17 | 349 | 3.2 | 12.9 | 0.00 | 0.00 | 0.00 | 1010.4 | |
| 20260504203246 | -17 | 354 | 9.7 | 12.9 | 0.00 | 0.00 | 0.00 | 1010.6 | |
| 20260504202741 | -17 | 301 | 3.2 | 11.3 | 0.00 | 0.00 | 0.00 | 1010.7 | |
| 20260504202239 | -17 | 334 | 4.8 | 16.1 | 0.00 | 0.00 | 0.00 | 1010.9 | |
| 20260504201736 | -17 | 298 | 9.7 | 14.5 | 0.00 | 0.00 | 0.00 | 1010.9 | |
| 20260504201233 | -17 | 318 | 6.4 | 14.5 | 0.00 | 0.00 | 0.00 | 1011.5 | |
| 20260504200731 | -17 | 302 | 8.0 | 11.3 | 0.00 | 0.00 | 0.00 | 1011.3 | |
| 20260504200226 | -17 | 319 | 8.0 | 12.9 | 0.00 | 0.00 | 0.00 | 1011.4 | |
| 20260504195723 | -17 | 286 | 4.8 | 12.9 | 0.00 | 0.00 | 0.00 | 1011.6 | |
| 20260504195219 | -17 | 341 | 8.0 | 11.3 | 0.00 | 0.00 | 0.00 | 1011.7 | |
| 20260504194716 | -17 | 359 | 3.2 | 9.7 | 0.00 | 0.00 | 0.00 | 1011.8 | |
| 20260504194212 | -17 | 336 | 6.4 | 9.7 | 0.00 | 0.00 | 0.00 | 1012.0 | |
| 20260504193709 | -17 | 326 | 4.8 | 14.5 | 0.00 | 0.00 | 0.00 | 1011.9 | |
| 20260504193206 | -17 | 317 | 4.8 | 14.5 | 0.00 | 0.00 | 0.00 | 1012.0 | |
| 20260504192705 | -17 | 334 | 9.7 | 14.5 | 0.00 | 0.00 | 0.00 | 1012.0 | |
| 20260504192202 | -17 | 289 | 6.4 | 16.1 | 0.00 | 0.00 | 0.00 | 1011.9 | |
| 20260504191701 | -17 | 349 | 9.7 | 17.7 | 0.00 | 0.00 | 0.00 | 1011.7 | |
| 20260504191156 | -17 | 352 | 8.0 | 12.9 | 0.00 | 0.00 | 0.00 | 1011.5 | |
| 20260504190652 | -17 | 294 | 8.0 | 14.5 | 0.00 | 0.00 | 0.00 | 1011.5 | |
| 20260504190149 | -17 | 343 | 1.6 | 17.7 | 0.00 | 0.00 | 0.00 | 1011.4 | |
| 20260504185645 | -17 | 298 | 6.4 | 12.9 | 0.00 | 0.00 | 0.00 | 1010.9 | |
| 20260504185142 | -17 | 319 | 0.0 | 9.7 | 0.00 | 0.00 | 0.00 | 1011.0 | |
| 20260504184639 | -17 | 313 | 8.0 | 12.9 | 0.00 | 0.00 | 0.00 | 1011.0 | |
| 20260504184133 | -17 | 306 | 4.8 | 11.3 | 0.00 | 0.00 | 0.00 | 1011.1 | |
| 20260504183631 | -17 | 353 | 9.7 | 17.7 | 0.00 | 0.00 | 0.00 | 1011.3 | |
| 20260504183128 | -17 | 322 | 1.6 | 8.0 | 0.00 | 0.00 | 0.00 | 1011.3 | |
| 20260504182626 | -17 | 315 | 3.2 | 14.5 | 0.00 | 0.00 | 0.00 | 1011.2 | |
| 20260504182123 | -17 | 334 | 3.2 | 11.3 | 0.00 | 0.00 | 0.00 | 1011.3 | |
| 20260504181620 | -17 | 290 | 8.0 | 11.3 | 0.00 | 0.00 | 0.00 | 1011.1 | |
| 20260504181118 | -17 | 303 | 4.8 | 9.7 | 0.00 | 0.00 | 0.00 | 1011.0 | |
| 20260504180617 | -17 | 291 | 3.2 | 11.3 | 0.00 | 0.00 | 0.00 | 1010.9 | |
| 20260504180115 | -17 | 329 | 6.4 | 14.5 | 0.00 | 0.00 | 0.00 | 1011.2 | |
| 20260504175612 | -17 | 298 | 4.8 | 16.1 | 0.00 | 0.00 | 0.00 | 1011.3 | |
| 20260504175109 | -17 | 347 | 9.7 | 14.5 | 0.00 | 0.00 | 0.00 | 1011.2 | |
| 20260504174607 | -17 | 311 | 4.8 | 12.9 | 0.00 | 0.00 | 0.00 | 1011.4 | |
| 20260504174103 | -17 | 348 | 3.2 | 12.9 | 0.00 | 0.00 | 0.00 | 1011.3 | |
| 20260504173600 | -17 | 312 | 4.8 | 8.0 | 0.00 | 0.00 | 0.00 | 1011.3 | |
| 20260504173058 | -17 | 344 | 1.6 | 8.0 | 0.00 | 0.00 | 0.00 | 1011.4 | |
| 20260504172554 | -17 | 310 | 6.4 | 14.5 | 0.00 | 0.00 | 0.00 | 1011.7 | |
| 20260504172050 | -17 | 8 | 9.7 | 17.7 | 0.00 | 0.00 | 0.00 | 1011.6 | |
| 20260504171547 | -17 | 344 | 0.0 | 8.0 | 0.00 | 0.00 | 0.00 | 1011.6 | |
| 20260504171044 | -17 | 332 | 8.0 | 11.3 | 0.00 | 0.00 | 0.00 | 1011.6 | |
| 20260504170540 | -17 | 329 | 1.6 | 4.8 | 0.00 | 0.00 | 0.00 | 1011.6 | |
| 20260504150924 | -17 | 349 | 3.2 | 12.9 | 0.00 | 0.00 | 0.00 | 1012.4 | |
| 20260504150421 | -17 | 272 | 9.7 | 14.5 | 0.00 | 0.00 | 0.00 | 1012.3 | |
| 20260504140847 | -17 | 336 | 1.6 | 11.3 | 0.00 | 0.00 | 0.00 | 1013.3 | |
| 20260504140343 | -17 | 310 | 3.2 | 12.9 | 0.00 | 0.00 | 0.00 | 1012.8 | |
| 20260504130812 | -17 | 297 | 9.7 | 14.5 | 0.00 | 0.00 | 0.00 | 1013.5 | |
| 20260504130308 | -17 | 327 | 3.2 | 11.3 | 0.00 | 0.00 | 0.00 | 1013.4 | |
| 20260504120232 | -17 | 282 | 6.4 | 8.0 | 0.00 | 0.00 | 0.00 | 1013.1 | |
| 20260504110659 | -17 | 295 | 1.6 | 4.8 | 0.00 | 0.00 | 0.00 | 1013.2 | |
| 20260504110155 | -17 | 307 | 4.8 | 9.7 | 0.00 | 0.00 | 0.00 | 1013.1 | |
| 20260504100615 | -17 | 335 | 1.6 | 3.2 | 0.00 | 0.00 | 0.00 | 1013.1 | |
| 20260504100114 | -17 | 294 | 3.2 | 4.8 | 0.00 | 0.00 | 0.00 | 1013.1 | |
| 20260504081507 | -17 | 304 | 4.8 | 4.8 | 0.00 | 0.00 | 0.00 | 1014.0 | |
| 20260504081002 | -17 | 347 | 3.2 | 8.0 | 0.00 | 0.00 | 0.00 | 1013.9 | |
| 20260504080459 | -17 | 348 | 1.6 | 3.2 | 0.00 | 0.00 | 0.00 | 1014.1 | |
| 20260504050305 | -17 | 311 | 1.6 | 8.0 | 0.00 | 0.00 | 0.00 | 1015.4 | |
| 20260504045802 | -17 | 330 | 8.0 | 11.3 | 0.00 | 0.00 | 0.00 | 1015.5 | |
| 20260504045257 | -17 | 269 | 3.2 | 8.0 | 0.00 | 0.00 | 0.00 | 1015.7 | |
| 20260504044754 | -17 | 347 | 3.2 | 4.8 | 0.00 | 0.00 | 0.00 | 1015.5 | |
| 20260504044252 | -17 | 350 | 0.0 | 3.2 | 0.00 | 0.00 | 0.00 | 1015.5 | |
| 20260504043749 | -17 | 355 | 4.8 | 4.8 | 0.00 | 0.00 | 0.00 | 1015.5 | |
| 20260504043246 | -17 | 336 | 1.6 | 4.8 | 0.00 | 0.00 | 0.00 | 1015.7 | |
| 20260504042744 | -17 | 318 | 3.2 | 8.0 | 0.00 | 0.00 | 0.00 | 1015.6 | |
| 20260504042240 | -17 | 349 | 1.6 | 1.6 | 0.00 | 0.00 | 0.00 | 1015.8 | |
| 20260504041736 | -17 | 338 | 1.6 | 4.8 | 0.00 | 0.00 | 0.00 | 1015.9 | |
| 20260504041232 | -17 | 356 | 0.0 | 1.6 | 0.00 | 0.00 | 0.00 | 1015.9 | |
| 20260504040728 | -17 | 338 | 1.6 | 3.2 | 0.00 | 0.00 | 0.00 | 1016.0 | |
| 20260504040226 | -17 | 346 | 1.6 | 1.6 | 0.00 | 0.00 | 0.00 | 1016.1 | |
| 20260504035722 | -17 | 347 | 0.0 | 1.6 | 0.00 | 0.00 | 0.00 | 1015.9 | |
| 20260504035220 | -17 | 353 | 0.0 | 1.6 | 0.00 | 0.00 | 0.00 | 1016.0 | |
| 20260504034717 | -17 | 349 | 0.0 | 1.6 | 0.00 | 0.00 | 0.00 | 1016.3 | |
| 20260504034214 | -17 | 1 | 0.0 | 0.0 | 0.00 | 0.00 | 0.00 | 1015.9 | |
| 20260504033712 | -17 | 6 | 0.0 | 1.6 | 0.00 | 0.00 | 0.00 | 1016.2 | |
| 20260504033209 | -17 | 350 | 1.6 | 4.8 | 0.00 | 0.00 | 0.00 | 1016.1 | |
| 20260504032706 | -17 | 348 | 0.0 | 4.8 | 0.00 | 0.00 | 0.00 | 1016.2 | |
| 20260504032203 | -17 | 322 | 1.6 | 8.0 | 0.00 | 0.00 | 0.00 | 1016.2 | |
| 20260504031659 | -17 | 349 | 1.6 | 4.8 | 0.00 | 0.00 | 0.00 | 1016.4 | |
| 20260504031156 | -17 | 12 | 0.0 | 3.2 | 0.00 | 0.00 | 0.00 | 1016.3 | |
| 20260504030652 | -17 | 346 | 3.2 | 8.0 | 0.00 | 0.00 | 0.00 | 1016.2 | |
| 20260504030150 | -17 | 325 | 0.0 | 3.2 | 0.00 | 0.00 | 0.00 | 1016.3 | |
| 20260504025646 | -17 | 348 | 1.6 | 1.6 | 0.00 | 0.00 | 0.00 | 1016.5 | |
| 20260504025143 | -17 | 349 | 0.0 | 1.6 | 0.00 | 0.00 | 0.00 | 1016.3 | |
| 20260504024640 | -17 | 348 | 1.6 | 3.2 | 0.00 | 0.00 | 0.00 | 1016.5 | |
| 20260504024136 | -17 | 342 | 0.0 | 1.6 | 0.00 | 0.00 | 0.00 | 1016.3 | |
| 20260504023634 | -17 | 340 | 1.6 | 4.8 | 0.00 | 0.00 | 0.00 | 1016.3 | |
| 20260504023130 | -17 | 1 | 0.0 | 0.0 | 0.00 | 0.00 | 0.00 | 1016.4 | |
| 20260504022626 | -17 | 1 | 0.0 | 0.0 | 0.00 | 0.00 | 0.00 | 1016.4 | |
| 20260504022122 | -17 | 1 | 0.0 | 0.0 | 0.00 | 0.00 | 0.00 | 1016.4 | |
| 20260504021620 | -17 | 1 | 0.0 | 0.0 | 0.00 | 0.00 | 0.00 | 1016.3 | |
| 20260504021116 | -17 | 1 | 0.0 | 0.0 | 0.00 | 0.00 | 0.00 | 1016.4 | |
| 20260504020613 | -17 | 350 | 0.0 | 1.6 | 0.00 | 0.00 | 0.00 | 1016.2 | |
| 20260504020109 | -17 | 4 | 0.0 | 0.0 | 0.00 | 0.00 | 0.00 | 1016.6 | |
| 20260504015606 | -17 | 353 | 0.0 | 1.6 | 0.00 | 0.00 | 0.00 | 1016.3 | |
| 20260504015102 | -17 | 353 | 0.0 | 0.0 | 0.00 | 0.00 | 0.00 | 1016.5 | |
| 20260504014558 | -17 | 353 | 0.0 | 0.0 | 0.00 | 0.00 | 0.00 | 1016.4 | |
| 20260504014056 | -17 | 353 | 0.0 | 0.0 | 0.00 | 0.00 | 0.00 | 1016.4 | |
| 20260504013553 | -17 | 353 | 0.0 | 0.0 | 0.00 | 0.00 | 0.00 | 1016.4 | |
| 20260504013050 | -17 | 353 | 0.0 | 0.0 | 0.00 | 0.00 | 0.00 | 1016.4 | |
| 20260504012547 | -17 | 353 | 0.0 | 0.0 | 0.00 | 0.00 | 0.00 | 1016.6 | |
| 20260504012045 | -17 | 353 | 0.0 | 0.0 | 0.00 | 0.00 | 0.00 | 1016.4 | |
| 20260504011542 | -17 | 353 | 0.0 | 0.0 | 0.00 | 0.00 | 0.00 | 1016.4 | |
| 20260504011038 | -17 | 353 | 0.0 | 0.0 | 0.00 | 0.00 | 0.00 | 1016.3 | |
| 20260504010533 | -17 | 353 | 0.0 | 0.0 | 0.00 | 0.00 | 0.00 | 1016.2 | |
| 20260504010030 | -17 | 355 | 0.0 | 0.0 | 0.00 | 0.00 | 0.00 | 1016.1 | |
| 20260504005527 | -17 | 10 | 0.0 | 0.0 | 0.00 | 0.00 | 0.00 | 1016.3 | |
| 20260504005024 | -17 | 4 | 0.0 | 0.0 | 0.00 | 0.00 | 0.00 | 1016.3 | |
| 20260504004522 | -17 | 3 | 0.0 | 0.0 | 0.00 | 0.00 | 0.00 | 1016.2 | |
| 20260504004019 | -17 | 293 | 1.6 | 1.6 | 0.00 | 0.00 | 0.00 | 1016.2 | |
| 20260504003515 | -17 | 352 | 0.0 | 0.0 | 0.00 | 0.00 | 0.00 | 1015.9 | |
| 20260504003012 | -17 | 10 | 0.0 | 1.6 | 0.00 | 0.00 | 0.00 | 1015.8 | |
| 20260504002509 | -17 | 354 | 0.0 | 0.0 | 0.00 | 0.00 | 0.00 | 1015.7 | |
| 20260504002006 | -17 | 23 | 1.6 | 1.6 | 0.00 | 0.00 | 0.00 | 1015.8 | |
| 20260504001504 | -17 | 20 | 0.0 | 1.6 | 0.00 | 0.00 | 0.00 | 1016.0 | |
| 20260504001000 | -17 | 10 | 0.0 | 1.6 | 0.00 | 0.00 | 0.00 | 1016.0 | |
| 20260504000457 | -17 | 91 | 1.6 | 4.8 | 0.00 | 0.00 | 0.00 | 1016.2 | |
| 20260503235954 | -17 | 349 | 0.0 | 1.6 | 0.00 | 0.00 | 0.00 | 1016.1 | |
| 20260503235452 | -17 | 327 | 0.0 | 1.6 | 0.00 | 0.00 | 0.00 | 1016.2 | |
| 20260503234949 | -17 | 5 | 0.0 | 1.6 | 0.00 | 0.00 | 0.00 | 1016.3 | |
| 20260503234446 | -17 | 357 | 0.0 | 1.6 | 0.00 | 0.00 | 0.00 | 1016.4 | |
| 20260503233944 | -17 | 347 | 0.0 | 1.6 | 0.00 | 0.00 | 0.00 | 1016.6 | |
| 20260503233440 | -17 | 358 | 1.6 | 1.6 | 0.00 | 0.00 | 0.00 | 1016.6 | |
| 20260503232937 | -17 | 10 | 0.0 | 1.6 | 0.00 | 0.00 | 0.00 | 1016.7 | |
| 20260503232434 | -17 | 24 | 1.6 | 3.2 | 0.00 | 0.00 | 0.00 | 1016.6 | |
| 20260503231932 | -17 | 353 | 0.0 | 0.0 | 0.00 | 0.00 | 0.00 | 1016.6 | |
| 20260503231429 | -17 | 359 | 0.0 | 0.0 | 0.00 | 0.00 | 0.00 | 1016.9 | |
| 20260503230926 | -17 | 314 | 1.6 | 1.6 | 0.00 | 0.00 | 0.00 | 1017.0 | |
| 20260503230422 | -17 | 34 | 0.0 | 1.6 | 0.00 | 0.00 | 0.00 | 1016.9 | |
| 20260503225920 | -17 | 347 | 0.0 | 1.6 | 0.00 | 0.00 | 0.00 | 1017.0 | |
| 20260503225416 | -17 | 357 | 1.6 | 3.2 | 0.00 | 0.00 | 0.00 | 1016.9 | |
| 20260503224912 | -17 | 14 | 0.0 | 1.6 | 0.00 | 0.00 | 0.00 | 1017.0 | |
| 20260503224409 | -17 | 27 | 1.6 | 1.6 | 0.00 | 0.00 | 0.00 | 1017.0 | |
| 20260503223907 | -17 | 6 | 0.0 | 0.0 | 0.00 | 0.00 | 0.00 | 1017.0 | |
| 20260503223405 | -17 | 356 | 1.6 | 1.6 | 0.00 | 0.00 | 0.00 | 1017.3 | |
| 20260503222859 | -17 | 46 | 4.8 | 4.8 | 0.00 | 0.00 | 0.00 | 1017.1 | |
| 20260503222359 | -17 | 359 | 0.0 | 1.6 | 0.00 | 0.00 | 0.00 | 1017.5 | |
| 20260503221856 | -17 | 12 | 0.0 | 1.6 | 0.00 | 0.00 | 0.00 | 1017.4 | |
| 20260503221355 | -17 | 23 | 0.0 | 1.6 | 0.00 | 0.00 | 0.00 | 1017.5 | |
| 20260503220850 | -17 | 357 | 0.0 | 1.6 | 0.00 | 0.00 | 0.00 | 1017.5 | |
| 20260503220347 | -17 | 30 | 1.6 | 3.2 | 0.00 | 0.00 | 0.00 | 1017.6 | |
| 20260503215844 | -17 | 45 | 0.0 | 3.2 | 0.00 | 0.00 | 0.00 | 1017.7 |